createdAt,value
2022-10-26T00:00:04.380Z,9.309014
2022-10-26T00:01:04.397Z,9.309019
2022-10-26T00:02:04.407Z,9.308897
2022-10-26T00:03:04.374Z,9.308918
2022-10-26T00:04:04.314Z,9.308893
2022-10-26T00:05:04.227Z,9.308861
2022-10-26T00:06:04.222Z,9.309137
2022-10-26T00:07:04.193Z,9.309075
2022-10-26T00:08:04.707Z,9.308950
2022-10-26T00:09:04.232Z,9.309104
2022-10-26T00:10:04.193Z,9.309104
2022-10-26T00:11:04.164Z,9.308821
2022-10-26T00:12:04.153Z,9.308844
2022-10-26T00:13:04.267Z,9.309011
2022-10-26T00:14:04.349Z,9.309002
2022-10-26T00:15:04.227Z,9.309066
2022-10-26T00:16:04.215Z,9.309055
2022-10-26T00:17:04.268Z,9.309078
2022-10-26T00:18:04.227Z,9.309027
2022-10-26T00:19:04.278Z,9.309061
2022-10-26T00:20:04.296Z,9.309054
2022-10-26T00:21:04.187Z,9.309030
2022-10-26T00:22:04.176Z,9.309174
2022-10-26T00:23:04.232Z,9.309203
2022-10-26T00:24:04.223Z,9.309050
2022-10-26T00:25:04.204Z,9.309027
2022-10-26T00:26:04.161Z,9.309090
2022-10-26T00:27:04.136Z,9.308984
2022-10-26T00:28:23.720Z,9.309077
2022-10-26T00:29:04.146Z,9.308971
2022-10-26T00:30:04.083Z,9.308963
2022-10-26T00:31:04.049Z,9.308977
2022-10-26T00:32:04.021Z,9.308990
2022-10-26T00:33:04.185Z,9.308990
2022-10-26T00:34:03.996Z,9.308946
2022-10-26T00:35:11.851Z,9.308934
2022-10-26T00:36:05.004Z,9.308884
2022-10-26T00:37:04.150Z,9.308964
2022-10-26T00:38:04.018Z,9.308979
2022-10-26T00:39:04.035Z,9.308982
2022-10-26T00:40:04.075Z,9.308949
2022-10-26T00:41:04.039Z,9.308996
2022-10-26T00:42:04.031Z,9.308982
2022-10-26T00:43:04.049Z,9.309056
2022-10-26T00:44:03.962Z,9.309012
2022-10-26T00:45:04.033Z,9.309037
2022-10-26T00:46:04.041Z,9.309015
2022-10-26T00:47:03.939Z,9.308971
2022-10-26T00:48:04.017Z,9.308921
2022-10-26T00:49:03.973Z,9.308986
2022-10-26T00:50:03.899Z,9.308995
2022-10-26T00:51:03.968Z,9.308934
2022-10-26T00:52:04.033Z,9.308991
2022-10-26T00:53:03.879Z,9.308883
2022-10-26T00:54:03.890Z,9.308989
2022-10-26T00:55:03.872Z,9.309052
2022-10-26T00:56:03.871Z,9.308981
2022-10-26T00:57:03.969Z,9.309063
2022-10-26T00:58:04.967Z,9.308962
2022-10-26T00:59:03.921Z,9.309037
2022-10-26T01:00:04.088Z,9.309041
2022-10-26T01:01:03.958Z,9.309008
2022-10-26T01:02:03.811Z,9.308935
2022-10-26T01:03:03.973Z,9.309062
2022-10-26T01:04:03.948Z,9.308988
2022-10-26T01:05:03.824Z,9.308919
2022-10-26T01:06:03.884Z,9.308944
2022-10-26T01:07:03.963Z,9.308948
2022-10-26T01:08:03.798Z,9.308849
2022-10-26T01:09:03.959Z,9.308938
2022-10-26T01:10:03.795Z,9.308956
2022-10-26T01:11:03.767Z,9.308941
2022-10-26T01:12:03.805Z,9.308865
2022-10-26T01:13:03.811Z,9.309032
2022-10-26T01:14:03.779Z,9.309052
2022-10-26T01:15:03.724Z,9.309052
2022-10-26T01:16:03.695Z,9.308964
2022-10-26T01:18:04.677Z,9.308980
2022-10-26T01:19:03.707Z,9.308949
2022-10-26T01:20:03.706Z,9.309089
2022-10-26T01:21:03.689Z,9.309070
2022-10-26T01:22:03.787Z,9.309116
2022-10-26T01:23:03.735Z,9.309080
2022-10-26T01:24:03.767Z,9.309134
2022-10-26T01:25:03.750Z,9.309179
2022-10-26T01:26:03.753Z,9.309113
2022-10-26T01:27:03.738Z,9.309168
2022-10-26T01:28:03.726Z,9.309104
2022-10-26T01:29:03.601Z,9.309125
2022-10-26T01:30:03.780Z,9.309070
2022-10-26T01:31:03.685Z,9.309129
2022-10-26T01:32:03.601Z,9.309126
2022-10-26T01:33:03.696Z,9.309182
2022-10-26T01:34:03.664Z,9.309146
2022-10-26T01:35:03.597Z,9.309115
2022-10-26T01:36:03.668Z,9.309195
2022-10-26T01:37:03.659Z,9.309085
2022-10-26T01:38:03.551Z,9.309071
2022-10-26T01:39:03.652Z,9.309106
2022-10-26T01:40:03.712Z,9.309150
2022-10-26T01:41:03.523Z,9.309149
2022-10-26T01:42:03.680Z,9.309179
2022-10-26T01:43:03.598Z,9.309128
2022-10-26T01:44:03.519Z,9.309226
2022-10-26T01:45:03.511Z,9.309253
2022-10-26T01:46:03.660Z,9.309192
2022-10-26T01:47:03.525Z,9.309140
2022-10-26T01:48:03.593Z,9.309086
2022-10-26T01:49:03.576Z,9.309037
2022-10-26T01:50:03.566Z,9.309190
2022-10-26T01:51:03.587Z,9.309175
2022-10-26T01:52:03.526Z,9.309237
2022-10-26T01:53:03.482Z,9.309081
2022-10-26T01:54:03.552Z,9.308989
2022-10-26T01:55:03.526Z,9.309011
2022-10-26T01:56:03.446Z,9.309087
2022-10-26T01:57:03.605Z,9.309055
2022-10-26T01:58:03.510Z,9.309069
2022-10-26T01:59:03.443Z,9.309022
2022-10-26T02:00:03.514Z,9.309114
2022-10-26T02:01:03.601Z,9.309124
2022-10-26T02:02:03.630Z,9.309077
2022-10-26T02:03:03.403Z,9.309064
2022-10-26T02:04:03.524Z,9.309053
2022-10-26T02:05:03.385Z,9.309180
2022-10-26T02:06:03.359Z,9.309218
2022-10-26T02:07:03.353Z,9.309134
2022-10-26T02:08:03.419Z,9.309268
2022-10-26T02:09:03.337Z,9.309329
2022-10-26T02:10:03.333Z,9.309214
2022-10-26T02:11:03.458Z,9.309176
2022-10-26T02:12:03.335Z,9.309055
2022-10-26T02:13:03.445Z,9.309042
2022-10-26T02:14:03.448Z,9.309077
2022-10-26T02:15:03.306Z,9.309054
2022-10-26T02:16:03.402Z,9.309133
2022-10-26T02:17:03.366Z,9.309067
2022-10-26T02:18:03.271Z,9.309088
2022-10-26T02:19:03.395Z,9.309056
2022-10-26T02:20:03.357Z,9.309093
2022-10-26T02:21:03.358Z,9.309096
2022-10-26T02:22:03.363Z,9.309141
2022-10-26T02:23:03.341Z,9.309201
2022-10-26T02:24:03.357Z,9.309074
2022-10-26T02:25:03.242Z,9.309142
2022-10-26T02:26:03.321Z,9.309227
2022-10-26T02:27:03.221Z,9.309155
2022-10-26T02:28:03.229Z,9.309078
2022-10-26T02:29:03.204Z,9.309146
2022-10-26T02:30:03.254Z,9.309084
2022-10-26T02:31:03.211Z,9.309069
2022-10-26T02:32:03.182Z,9.309148
2022-10-26T02:33:03.171Z,9.309120
2022-10-26T02:34:03.294Z,9.309141
2022-10-26T02:35:03.296Z,9.308995
2022-10-26T02:36:03.180Z,9.309095
2022-10-26T02:37:03.265Z,9.309116
2022-10-26T02:38:03.229Z,9.309143
2022-10-26T02:39:03.134Z,9.309112
2022-10-26T02:40:03.231Z,9.309126
2022-10-26T02:41:03.262Z,9.309153
2022-10-26T02:42:03.095Z,9.309187
2022-10-26T02:43:03.195Z,9.309099
2022-10-26T02:44:03.223Z,9.309060
2022-10-26T02:45:03.084Z,9.309161
2022-10-26T02:46:03.223Z,9.308983
2022-10-26T02:47:03.190Z,9.309019
2022-10-26T02:48:03.083Z,9.309023
2022-10-26T02:49:03.205Z,9.308883
2022-10-26T02:50:03.062Z,9.308795
2022-10-26T02:51:03.053Z,9.308845
2022-10-26T02:52:03.116Z,9.308892
2022-10-26T02:53:03.216Z,9.309003
2022-10-26T02:54:03.173Z,9.309106
2022-10-26T02:55:03.092Z,9.309160
2022-10-26T02:56:03.084Z,9.309157
2022-10-26T02:57:03.044Z,9.309149
2022-10-26T02:58:03.097Z,9.309125
2022-10-26T02:59:03.006Z,9.309093
2022-10-26T03:00:03.041Z,9.309143
2022-10-26T03:01:03.269Z,9.309138
2022-10-26T03:02:03.100Z,9.309149
2022-10-26T03:03:03.064Z,9.309083
2022-10-26T03:04:03.098Z,9.309154
2022-10-26T03:05:03.022Z,9.309167
2022-10-26T03:06:02.937Z,9.309132
2022-10-26T03:07:03.010Z,9.309138
2022-10-26T03:08:03.324Z,9.309111
2022-10-26T03:09:03.975Z,9.309163
2022-10-26T03:10:02.980Z,9.309175
2022-10-26T03:11:02.913Z,9.309137
2022-10-26T03:12:02.888Z,9.309124
2022-10-26T03:13:02.934Z,9.309143
2022-10-26T03:14:03.000Z,9.309170
2022-10-26T03:15:02.852Z,9.309138
2022-10-26T03:16:02.856Z,9.309114
2022-10-26T03:17:02.878Z,9.309128
2022-10-26T03:18:02.859Z,9.309110
2022-10-26T03:19:02.848Z,9.309061
2022-10-26T03:20:02.875Z,9.309103
2022-10-26T03:21:02.817Z,9.309111
2022-10-26T06:15:03.421Z,9.309528
2022-10-26T06:16:03.296Z,9.309250
2022-10-26T06:17:03.305Z,9.309499
2022-10-26T06:18:03.333Z,9.309476
2022-10-26T06:19:03.322Z,9.309398
2022-10-26T06:20:03.424Z,9.309295
2022-10-26T06:21:03.309Z,9.309185
2022-10-26T06:22:03.377Z,9.309278
2022-10-26T06:23:03.415Z,9.309548
2022-10-26T06:24:03.336Z,9.309352
2022-10-26T06:25:03.347Z,9.309175
2022-10-26T06:26:03.326Z,9.309017
2022-10-26T06:27:03.336Z,9.309191
2022-10-26T06:28:03.341Z,9.309124
2022-10-26T06:29:03.343Z,9.309206
2022-10-26T06:30:03.369Z,9.309188
2022-10-26T06:31:03.327Z,9.309187
2022-10-26T06:32:03.365Z,9.309169
2022-10-26T06:33:06.338Z,9.309072
2022-10-26T06:34:05.366Z,9.309114
2022-10-26T06:35:07.026Z,9.309104
2022-10-26T06:36:04.185Z,9.309240
2022-10-26T06:37:03.151Z,9.309240
2022-10-26T06:38:03.272Z,9.309181
2022-10-26T06:39:03.273Z,9.309223
2022-10-26T06:40:03.215Z,9.309208
2022-10-26T06:41:03.227Z,9.309142
2022-10-26T06:42:03.231Z,9.309093
2022-10-26T06:43:03.250Z,9.309094
2022-10-26T06:44:03.231Z,9.309080
2022-10-26T06:45:03.350Z,9.309046
2022-10-26T06:46:03.188Z,9.309055
2022-10-26T06:47:03.210Z,9.309105
2022-10-26T06:48:03.190Z,9.309103
2022-10-26T06:49:03.201Z,9.309052
2022-10-26T06:50:03.182Z,9.309043
2022-10-26T06:51:03.187Z,9.309002
2022-10-26T06:52:03.152Z,9.308986
2022-10-26T06:53:03.164Z,9.308966
2022-10-26T06:54:03.060Z,9.309015
2022-10-26T06:55:03.074Z,9.308956
2022-10-26T06:56:03.063Z,9.309005
2022-10-26T06:57:03.048Z,9.308945
2022-10-26T06:58:03.019Z,9.309031
2022-10-26T06:59:04.889Z,9.309122
2022-10-26T07:00:02.998Z,9.309047
2022-10-26T07:01:03.097Z,9.309066
2022-10-26T07:02:05.774Z,9.309075
2022-10-26T07:03:03.042Z,9.309093
2022-10-26T07:04:03.102Z,9.309078
2022-10-26T07:05:03.046Z,9.309039
2022-10-26T07:06:03.114Z,9.308801
2022-10-26T07:07:03.144Z,9.308923
2022-10-26T07:08:03.050Z,9.309012
2022-10-26T07:09:03.031Z,9.309087
2022-10-26T07:10:03.033Z,9.309051
2022-10-26T07:11:03.030Z,9.309084
2022-10-26T07:12:03.069Z,9.308907
2022-10-26T07:13:03.019Z,9.309009
2022-10-26T07:14:02.978Z,9.309093
2022-10-26T07:15:03.085Z,9.308988
2022-10-26T07:16:03.022Z,9.309031
2022-10-26T07:17:03.136Z,9.309051
2022-10-26T07:18:03.119Z,9.309049
2022-10-26T07:19:02.887Z,9.309018
2022-10-26T07:20:02.908Z,9.309047
2022-10-26T07:21:02.885Z,9.309091
2022-10-26T07:22:02.878Z,9.309024
2022-10-26T07:23:02.977Z,9.309044
2022-10-26T07:24:02.855Z,9.309069
2022-10-26T07:25:03.371Z,9.309052
2022-10-26T07:26:02.859Z,9.309156
2022-10-26T07:27:02.846Z,9.309045
2022-10-26T07:28:02.863Z,9.309105
2022-10-26T07:29:02.814Z,9.309148
2022-10-26T07:30:03.916Z,9.308856
2022-10-26T07:31:02.880Z,9.309209
2022-10-26T07:32:02.907Z,9.309048
2022-10-26T07:33:02.919Z,9.309045
2022-10-26T07:34:02.925Z,9.309084
2022-10-26T07:35:02.861Z,9.309112
2022-10-26T07:36:02.905Z,9.309188
2022-10-26T07:37:02.851Z,9.309117
2022-10-26T07:38:02.866Z,9.309141
2022-10-26T07:39:02.942Z,9.309070
2022-10-26T07:40:06.436Z,9.309089
2022-10-26T07:41:03.847Z,9.309136
2022-10-26T07:42:02.833Z,9.309146
2022-10-26T07:43:02.876Z,9.309143
2022-10-26T07:44:02.897Z,9.309298
2022-10-26T07:45:03.339Z,9.309205
2022-10-26T07:46:02.858Z,9.309136
2022-10-26T07:47:02.776Z,9.309093
2022-10-26T07:48:02.728Z,9.309257
2022-10-26T07:49:02.687Z,9.309218
2022-10-26T07:50:02.709Z,9.309126
2022-10-26T07:51:03.255Z,9.309080
2022-10-26T07:52:03.642Z,9.309173
2022-10-26T07:53:02.628Z,9.309115
2022-10-26T07:54:02.746Z,9.309092
2022-10-26T07:55:02.766Z,9.309042
2022-10-26T07:56:02.654Z,9.309085
2022-10-26T07:57:02.780Z,9.309063
2022-10-26T07:58:02.733Z,9.309057
2022-10-26T07:59:02.600Z,9.309141
2022-10-26T08:00:02.725Z,9.309135
2022-10-26T08:01:02.821Z,9.309066
2022-10-26T08:02:02.627Z,9.309095
2022-10-26T08:03:02.624Z,9.309107
2022-10-26T08:04:02.747Z,9.309121
2022-10-26T08:05:02.575Z,9.309077
2022-10-26T08:06:02.805Z,9.309022
2022-10-26T08:07:02.644Z,9.309069
2022-10-26T08:08:02.636Z,9.309064
2022-10-26T08:09:02.659Z,9.309015
2022-10-26T08:10:02.641Z,9.309015
2022-10-26T08:11:02.629Z,9.309102
2022-10-26T08:12:02.645Z,9.309011
2022-10-26T08:13:02.626Z,9.309070
2022-10-26T08:14:02.642Z,9.309134
2022-10-26T08:15:02.618Z,9.309040
2022-10-26T08:16:02.672Z,9.309039
2022-10-26T08:17:02.985Z,9.309050
2022-10-26T08:18:02.564Z,9.309091
2022-10-26T08:19:02.580Z,9.309097
2022-10-26T08:20:02.609Z,9.309210
2022-10-26T08:21:10.680Z,9.309095
2022-10-26T08:22:03.796Z,9.309148
2022-10-26T08:23:02.439Z,9.309086
2022-10-26T08:24:02.435Z,9.309167
2022-10-26T08:25:02.457Z,9.309114
2022-10-26T08:26:02.514Z,9.309166
2022-10-26T08:27:02.417Z,9.309133
2022-10-26T08:28:02.633Z,9.309117
2022-10-26T08:29:02.471Z,9.309061
2022-10-26T08:30:02.470Z,9.309072
2022-10-26T08:31:02.431Z,9.309112
2022-10-26T08:32:02.431Z,9.309125
2022-10-26T08:33:02.581Z,9.309124
2022-10-26T08:34:02.613Z,9.309176
2022-10-26T08:35:02.579Z,9.309191
2022-10-26T08:36:02.656Z,9.309114
2022-10-26T08:37:02.566Z,9.309117
2022-10-26T08:38:02.489Z,9.309102
2022-10-26T08:39:02.612Z,9.309081
2022-10-26T08:40:03.454Z,9.309074
2022-10-26T08:41:02.477Z,9.309092
2022-10-26T08:42:02.441Z,9.309105
2022-10-26T08:43:03.460Z,9.309017
2022-10-26T08:44:02.520Z,9.309059
2022-10-26T08:45:02.410Z,9.309085
2022-10-26T08:46:02.524Z,9.309059
2022-10-26T08:47:02.478Z,9.309093
2022-10-26T08:48:02.413Z,9.309028
2022-10-26T08:49:02.633Z,9.309035
2022-10-26T08:50:02.386Z,9.308992
2022-10-26T08:51:03.277Z,9.308996
2022-10-26T08:52:02.331Z,9.309087
2022-10-26T08:53:02.305Z,9.309084
2022-10-26T08:54:02.277Z,9.309094
2022-10-26T08:55:02.387Z,9.309124
2022-10-26T08:56:02.391Z,9.309190
2022-10-26T08:57:02.284Z,9.309080
2022-10-26T08:58:02.267Z,9.309122
2022-10-26T08:59:02.308Z,9.309140
2022-10-26T09:00:02.306Z,9.309093
2022-10-26T09:01:02.262Z,9.309090
2022-10-26T09:02:02.378Z,9.309114
2022-10-26T09:03:02.300Z,9.309140
2022-10-26T09:05:03.482Z,9.309136
2022-10-26T09:06:02.352Z,9.309067
2022-10-26T09:07:03.298Z,9.309086
2022-10-26T09:08:02.317Z,9.309119
2022-10-26T09:09:06.156Z,9.309176
2022-10-26T09:10:02.279Z,9.309114
2022-10-26T09:11:02.301Z,9.309150
2022-10-26T09:12:02.206Z,9.309125
2022-10-26T09:13:02.190Z,9.309076
2022-10-26T09:14:02.321Z,9.309100
2022-10-26T09:15:02.179Z,9.309099
2022-10-26T09:16:02.391Z,9.309100
2022-10-26T09:17:02.211Z,9.309144
2022-10-26T09:18:02.303Z,9.309110
2022-10-26T09:19:03.037Z,9.309084
2022-10-26T09:20:02.509Z,9.309088
2022-10-26T09:21:02.242Z,9.309114
2022-10-26T09:22:02.280Z,9.309072
2022-10-26T09:23:02.289Z,9.309035
2022-10-26T09:24:02.530Z,9.309019
2022-10-26T09:25:05.420Z,9.309081
2022-10-26T09:26:04.064Z,9.309104
2022-10-26T09:27:02.111Z,9.309143
2022-10-26T09:28:02.118Z,9.309189
2022-10-26T09:29:02.087Z,9.309152
2022-10-26T09:30:02.007Z,9.309198
2022-10-26T09:31:02.107Z,9.309128
2022-10-26T09:32:02.166Z,9.309105
2022-10-26T09:33:02.208Z,9.309052
2022-10-26T09:34:02.162Z,9.309168
2022-10-26T09:35:02.088Z,9.309084
2022-10-26T09:36:02.355Z,9.309116
2022-10-26T09:37:02.232Z,9.309031
2022-10-26T09:38:02.264Z,9.309096
2022-10-26T09:39:02.150Z,9.309054
2022-10-26T09:40:02.051Z,9.309055
2022-10-26T09:41:02.125Z,9.309078
2022-10-26T09:42:02.137Z,9.309079
2022-10-26T09:43:01.997Z,9.309071
2022-10-26T09:44:01.935Z,9.309063
2022-10-26T09:45:01.910Z,9.309074
2022-10-26T09:46:04.451Z,9.309079
2022-10-26T09:47:01.944Z,9.309125
2022-10-26T09:48:05.171Z,9.309075
2022-10-26T09:50:01.978Z,9.309063
2022-10-26T09:51:04.576Z,9.309109
2022-10-26T09:52:03.035Z,9.309089
2022-10-26T09:53:02.084Z,9.309084
2022-10-26T09:54:01.983Z,9.309054
2022-10-26T09:55:01.940Z,9.309218
2022-10-26T09:56:01.955Z,9.309032
2022-10-26T09:57:01.912Z,9.309052
2022-10-26T09:58:02.027Z,9.309023
2022-10-26T09:59:01.861Z,9.309081
2022-10-26T10:00:01.950Z,9.309085
2022-10-26T10:01:01.871Z,9.309076
2022-10-26T10:02:02.018Z,9.309052
2022-10-26T10:03:01.998Z,9.309050
2022-10-26T10:04:01.995Z,9.309030
2022-10-26T10:05:01.884Z,9.309072
2022-10-26T10:06:01.952Z,9.309023
2022-10-26T10:07:01.859Z,9.309140
2022-10-26T10:08:01.920Z,9.309048
2022-10-26T10:09:01.845Z,9.309053
2022-10-26T10:10:01.838Z,9.309006
2022-10-26T10:11:01.736Z,9.309080
2022-10-26T10:12:01.681Z,9.309113
2022-10-26T10:13:01.714Z,9.309055
2022-10-26T10:14:01.806Z,9.309010
2022-10-26T10:15:01.776Z,9.308941
2022-10-26T10:16:01.702Z,9.308971
2022-10-26T10:17:01.700Z,9.309005
2022-10-26T10:18:01.737Z,9.309005
2022-10-26T10:19:01.756Z,9.308990
2022-10-26T10:20:01.780Z,9.308990
2022-10-26T10:21:02.805Z,9.309014
2022-10-26T10:22:01.764Z,9.309017
2022-10-26T10:23:01.806Z,9.309000
2022-10-26T10:24:01.828Z,9.308965
2022-10-26T10:25:01.759Z,9.309005
2022-10-26T10:26:02.128Z,9.309002
2022-10-26T10:27:01.772Z,9.309061
2022-10-26T10:28:01.759Z,9.309014
2022-10-26T10:29:01.793Z,9.308990
2022-10-26T10:30:04.247Z,9.308979
2022-10-26T10:31:01.724Z,9.309035
2022-10-26T10:32:01.817Z,9.308979
2022-10-26T10:33:01.667Z,9.308966
2022-10-26T10:34:01.669Z,9.309061
2022-10-26T10:35:01.751Z,9.309036
2022-10-26T10:36:01.684Z,9.309076
2022-10-26T10:37:01.765Z,9.309060
2022-10-26T10:38:01.616Z,9.309028
2022-10-26T10:39:01.667Z,9.309077
2022-10-26T10:40:01.536Z,9.309084
2022-10-26T10:41:01.652Z,9.309001
2022-10-26T10:42:01.598Z,9.309029
2022-10-26T10:43:01.647Z,9.308975
2022-10-26T10:44:01.515Z,9.309013
2022-10-26T10:45:01.722Z,9.308910
2022-10-26T10:46:01.720Z,9.309050
2022-10-26T10:47:01.586Z,9.309015
2022-10-26T10:48:01.708Z,9.309004
2022-10-26T10:49:01.559Z,9.309061
2022-10-26T10:50:01.650Z,9.309116
2022-10-26T10:51:01.534Z,9.309109
2022-10-26T10:52:01.598Z,9.309120
2022-10-26T10:53:01.693Z,9.309072
2022-10-26T10:54:01.950Z,9.309067
2022-10-26T10:55:01.518Z,9.309026
2022-10-26T10:56:01.540Z,9.309120
2022-10-26T10:57:01.527Z,9.309111
2022-10-26T10:58:01.635Z,9.309052
2022-10-26T10:59:01.434Z,9.309020
2022-10-26T11:00:01.551Z,9.308997
2022-10-26T11:01:01.413Z,9.309009
2022-10-26T11:02:01.712Z,9.308951
2022-10-26T11:03:01.340Z,9.309026
2022-10-26T11:04:01.407Z,9.309092
2022-10-26T11:05:01.410Z,9.309096
2022-10-26T11:06:01.641Z,9.309042
2022-10-26T11:07:01.453Z,9.309023
2022-10-26T11:08:01.440Z,9.308971
2022-10-26T11:09:01.479Z,9.309085
2022-10-26T11:10:01.440Z,9.309170
2022-10-26T11:11:01.562Z,9.309114
2022-10-26T11:12:01.495Z,9.309081
2022-10-26T11:13:01.500Z,9.309138
2022-10-26T11:14:01.385Z,9.309075
2022-10-26T11:15:01.382Z,9.309035
2022-10-26T11:16:01.558Z,9.309009
2022-10-26T11:17:01.310Z,9.309062
2022-10-26T11:18:02.345Z,9.309068
2022-10-26T11:19:01.349Z,9.309095
2022-10-26T11:20:01.364Z,9.308975
2022-10-26T11:21:01.353Z,9.308963
2022-10-26T11:22:01.307Z,9.308970
2022-10-26T11:23:01.679Z,9.308966
2022-10-26T11:24:01.405Z,9.309011
2022-10-26T11:25:01.329Z,9.309121
2022-10-26T11:26:01.358Z,9.308972
2022-10-26T11:27:01.272Z,9.308951
2022-10-26T11:28:01.233Z,9.308846
2022-10-26T11:29:01.153Z,9.308867
2022-10-26T11:30:01.134Z,9.308970
2022-10-26T11:31:01.192Z,9.308982
2022-10-26T11:32:01.258Z,9.308920
2022-10-26T11:33:01.191Z,9.308994
2022-10-26T11:34:01.229Z,9.309044
2022-10-26T11:35:01.298Z,9.309151
2022-10-26T11:36:01.183Z,9.309111
2022-10-26T11:37:01.271Z,9.309063
2022-10-26T11:38:01.556Z,9.309003
2022-10-26T11:39:04.018Z,9.308954
2022-10-26T11:40:03.156Z,9.308975
2022-10-26T11:41:01.229Z,9.308964
2022-10-26T11:42:01.514Z,9.308956
2022-10-26T11:43:01.237Z,9.309007
2022-10-26T11:44:01.199Z,9.309027
2022-10-26T11:45:01.171Z,9.309029
2022-10-26T11:46:01.171Z,9.308971
2022-10-26T11:47:01.172Z,9.308939
2022-10-26T11:48:01.170Z,9.308995
2022-10-26T11:49:01.195Z,9.308988
2022-10-26T11:50:01.156Z,9.308918
2022-10-26T11:51:01.142Z,9.308881
2022-10-26T11:52:01.095Z,9.308867
2022-10-26T11:53:00.994Z,9.308843
2022-10-26T11:54:01.065Z,9.308993
2022-10-26T11:55:01.064Z,9.308964
2022-10-26T11:56:00.988Z,9.308960
2022-10-26T11:57:01.193Z,9.308908
2022-10-26T11:58:01.100Z,9.308904
2022-10-26T12:00:01.136Z,9.308908
2022-10-26T12:01:01.072Z,9.308969
2022-10-26T12:02:01.058Z,9.309005
2022-10-26T12:03:01.113Z,9.308958
2022-10-26T12:04:01.215Z,9.308974
2022-10-26T12:05:01.055Z,9.308957
2022-10-26T12:06:01.075Z,9.308951
2022-10-26T12:07:00.999Z,9.308949
2022-10-26T12:08:01.010Z,9.308904
2022-10-26T12:09:01.072Z,9.308911
2022-10-26T12:10:01.012Z,9.308921
2022-10-26T12:11:01.100Z,9.308981
2022-10-26T12:12:01.087Z,9.308967
2022-10-26T12:13:01.037Z,9.308923
2022-10-26T12:14:01.017Z,9.308966
2022-10-26T12:15:00.935Z,9.308968
2022-10-26T12:16:03.935Z,9.308873
2022-10-26T12:17:01.845Z,9.308826
2022-10-26T12:18:00.836Z,9.308842
2022-10-26T12:19:00.837Z,9.308852
2022-10-26T12:20:00.846Z,9.308880
2022-10-26T12:21:00.848Z,9.308887
2022-10-26T12:22:00.848Z,9.308805
2022-10-26T12:23:00.824Z,9.308991
2022-10-26T12:24:00.813Z,9.308925
2022-10-26T12:25:00.855Z,9.308969
2022-10-26T12:26:00.871Z,9.308913
2022-10-26T12:27:01.292Z,9.308917
2022-10-26T12:28:00.875Z,9.308918
2022-10-26T12:29:00.880Z,9.308930
2022-10-26T12:30:00.875Z,9.309006
2022-10-26T12:31:00.847Z,9.308986
2022-10-26T12:32:00.914Z,9.308946
2022-10-26T12:33:00.896Z,9.308951
2022-10-26T12:34:00.846Z,9.308926
2022-10-26T12:35:00.836Z,9.308880
2022-10-26T12:36:00.879Z,9.309030
2022-10-26T12:37:00.821Z,9.309029
2022-10-26T12:38:00.851Z,9.308962
2022-10-26T12:39:00.888Z,9.309003
2022-10-26T12:40:00.815Z,9.308942
2022-10-26T12:41:00.719Z,9.309008
2022-10-26T12:42:00.943Z,9.309019
2022-10-26T12:43:00.715Z,9.308962
2022-10-26T12:44:02.726Z,9.308949
2022-10-26T12:45:00.605Z,9.308918
2022-10-26T12:46:00.589Z,9.308968
2022-10-26T12:47:00.620Z,9.308915
2022-10-26T12:48:07.016Z,9.308923
2022-10-26T12:49:02.582Z,9.308962
2022-10-26T12:50:00.545Z,9.308960
2022-10-26T12:51:00.653Z,9.308932
2022-10-26T12:53:00.652Z,9.308861
2022-10-26T12:54:00.741Z,9.308977
2022-10-26T12:55:00.700Z,9.309017
2022-10-26T12:56:00.628Z,9.308937
2022-10-26T12:57:00.641Z,9.308953
2022-10-26T12:58:00.496Z,9.308929
2022-10-26T12:59:04.470Z,9.309031
2022-10-26T13:00:01.667Z,9.309000
2022-10-26T13:01:00.639Z,9.308979
2022-10-26T13:02:00.591Z,9.308996
2022-10-26T13:03:00.581Z,9.309062
2022-10-26T13:04:00.577Z,9.309130
2022-10-26T13:05:00.657Z,9.309136
2022-10-26T13:06:00.565Z,9.309149
2022-10-26T13:07:00.548Z,9.309187
2022-10-26T13:08:00.527Z,9.309113
2022-10-26T13:09:00.825Z,9.309114
2022-10-26T13:10:00.555Z,9.309135
2022-10-26T13:11:00.585Z,9.309159
2022-10-26T13:12:00.523Z,9.309155
2022-10-26T13:13:00.493Z,9.309165
2022-10-26T13:14:00.504Z,9.309114
2022-10-26T13:15:00.489Z,9.309116
2022-10-26T13:16:00.435Z,9.309154
2022-10-26T13:17:00.595Z,9.309138
2022-10-26T13:18:00.477Z,9.309110
2022-10-26T13:19:00.447Z,9.309089
2022-10-26T13:20:00.355Z,9.309102
2022-10-26T13:21:00.378Z,9.309126
2022-10-26T13:22:00.428Z,9.309164
2022-10-26T13:24:00.333Z,9.309121
2022-10-26T13:25:00.320Z,9.309113
2022-10-26T13:26:00.305Z,9.309122
2022-10-26T13:27:00.436Z,9.309117
2022-10-26T13:28:01.451Z,9.309137
2022-10-26T13:29:00.312Z,9.309147
2022-10-26T13:30:00.275Z,9.309129
2022-10-26T13:31:00.379Z,9.309133
2022-10-26T13:32:00.378Z,9.309073
2022-10-26T13:33:00.629Z,9.309053
2022-10-26T13:34:00.319Z,9.309098
2022-10-26T13:35:00.359Z,9.309151
2022-10-26T13:36:00.318Z,9.309152
2022-10-26T13:37:01.349Z,9.309108
2022-10-26T13:38:00.332Z,9.309119
2022-10-26T13:39:00.306Z,9.309180
2022-10-26T13:40:00.419Z,9.309055
2022-10-26T13:41:00.333Z,9.309054
2022-10-26T13:42:00.332Z,9.309080
2022-10-26T13:43:00.389Z,9.309048
2022-10-26T13:44:00.319Z,9.309028
2022-10-26T13:45:00.426Z,9.309050
2022-10-26T13:46:00.355Z,9.309045
2022-10-26T13:47:00.334Z,9.309005
2022-10-26T13:48:00.733Z,9.309068
2022-10-26T13:49:00.291Z,9.309171
2022-10-26T13:50:00.384Z,9.309162
2022-10-26T13:51:00.254Z,9.309164
2022-10-26T13:52:00.579Z,9.309091
2022-10-26T13:53:00.292Z,9.308979
2022-10-26T13:54:00.523Z,9.309001
2022-10-26T13:55:00.451Z,9.309078
2022-10-26T13:56:00.333Z,9.309130
2022-10-26T13:57:00.139Z,9.309107
2022-10-26T13:58:00.197Z,9.309184
2022-10-26T13:59:00.169Z,9.309171
2022-10-26T14:00:03.900Z,9.309151
2022-10-26T14:01:01.155Z,9.309155
2022-10-26T14:02:00.105Z,9.309104
2022-10-26T14:03:00.132Z,9.309125
2022-10-26T14:04:00.201Z,9.309061
2022-10-26T14:05:00.253Z,9.309111
2022-10-26T14:06:00.181Z,9.309150
2022-10-26T14:07:00.209Z,9.309187
2022-10-26T14:08:00.248Z,9.309104
2022-10-26T14:09:00.151Z,9.309097
2022-10-26T14:10:00.133Z,9.309114
2022-10-26T14:11:00.135Z,9.309167
2022-10-26T14:12:00.044Z,9.309142
2022-10-26T14:13:00.118Z,9.309190
2022-10-26T14:14:00.060Z,9.309154
2022-10-26T14:15:00.072Z,9.309081
2022-10-26T14:16:00.151Z,9.309087
2022-10-26T14:17:00.027Z,9.309183
2022-10-26T14:18:00.062Z,9.309099
2022-10-26T14:19:00.021Z,9.309046
2022-10-26T14:19:59.945Z,9.309005
2022-10-26T14:20:59.953Z,9.309036
2022-10-26T14:21:59.998Z,9.309000
2022-10-26T14:22:59.923Z,9.309007
2022-10-26T14:23:59.903Z,9.309034
2022-10-26T14:24:59.916Z,9.308987
2022-10-26T14:25:59.927Z,9.308941
2022-10-26T14:26:59.895Z,9.309037
2022-10-26T14:27:59.863Z,9.309184
2022-10-26T14:28:59.931Z,9.309177
2022-10-26T14:30:24.241Z,9.309029
2022-10-26T14:31:02.044Z,9.309154
2022-10-26T14:31:59.840Z,9.309142
2022-10-26T14:32:59.919Z,9.309050
2022-10-26T14:33:59.913Z,9.309114
2022-10-26T14:34:59.901Z,9.309165
2022-10-26T14:35:59.977Z,9.309172
2022-10-26T14:37:00.109Z,9.309125
2022-10-26T14:37:59.912Z,9.309196
2022-10-26T14:38:59.879Z,9.309213
2022-10-26T14:39:59.887Z,9.309212
2022-10-26T14:40:59.992Z,9.309220
2022-10-26T14:42:00.226Z,9.309191
2022-10-26T14:42:59.884Z,9.309099